Time;durP1;ratioP1;P1;durP2;ratioP2;P2;SDS_P1;SDS_P2;PMS_P1;PMS_P2;Temp;Humidity;BMP_temperature;BMP_pressure;BME280_temperature;BME280_humidity;BME280_pressure;Samples;Min_cycle;Max_cycle;Signal;HPM_P1;HPM_P2
2022/06/11 00:01:43;;;;;;;;;;;17.10;73.30;;;;;;5074279;28;20025;-13
2022/06/11 00:04:14;;;;;;;7.30;4.97;;;17.00;73.50;;;;;;5073806;28;20014;-12
2022/06/11 00:06:46;;;;;;;6.72;4.78;;;17.00;73.90;;;;;;5074097;28;20101;-13
2022/06/11 00:09:14;;;;;;;8.38;4.97;;;16.90;73.90;;;;;;5073734;28;20078;-13
2022/06/11 00:11:41;;;;;;;6.82;4.22;;;16.90;73.90;;;;;;5073592;28;20036;-14
2022/06/11 00:14:08;;;;;;;6.63;4.30;;;16.90;73.80;;;;;;5073875;28;20024;-14
2022/06/11 00:16:35;;;;;;;7.10;4.75;;;16.90;73.90;;;;;;5073327;28;20039;-10
2022/06/11 00:19:06;;;;;;;9.20;4.65;;;16.90;73.80;;;;;;5073486;28;20059;-11
2022/06/11 00:21:36;;;;;;;6.40;4.28;;;16.90;74.10;;;;;;5073521;28;20035;-12
2022/06/11 00:24:03;;;;;;;6.70;4.20;;;16.80;74.10;;;;;;5073383;28;20569;-13
2022/06/11 00:26:30;;;;;;;9.63;6.07;;;16.80;74.20;;;;;;5073223;28;20108;-12
2022/06/11 00:28:57;;;;;;;6.82;4.60;;;16.70;74.00;;;;;;5072233;28;20036;-12
2022/06/11 00:31:24;;;;;;;6.40;4.38;;;16.70;74.20;;;;;;5073233;28;20060;-13
2022/06/11 00:33:50;;;;;;;5.50;4.00;;;16.70;74.20;;;;;;5073970;28;20055;-13
2022/06/11 00:36:18;;;;;;;8.27;4.13;;;16.70;74.20;;;;;;5072894;28;20035;-13
2022/06/11 00:38:46;;;;;;;6.20;4.22;;;16.60;74.30;;;;;;5073311;28;20407;-13
2022/06/11 00:41:15;;;;;;;8.10;4.93;;;16.60;74.60;;;;;;5073545;28;20024;-12
2022/06/11 00:43:42;;;;;;;6.63;4.78;;;16.60;74.60;;;;;;5073262;28;20028;-13
2022/06/11 00:46:27;;;;;;;9.43;5.45;;;16.50;74.60;;;;;;5073093;28;20035;-12
2022/06/11 00:48:53;;;;;;;8.07;5.28;;;16.50;74.80;;;;;;5073366;28;20028;-13
2022/06/11 00:51:23;;;;;;;6.63;4.72;;;16.50;74.70;;;;;;5073465;28;20110;-13
2022/06/11 00:53:56;;;;;;;7.65;4.30;;;16.40;74.90;;;;;;5073468;28;20111;-13
2022/06/11 00:56:32;;;;;;;8.00;4.70;;;16.40;75.10;;;;;;5073347;28;20028;-12
2022/06/11 00:59:01;;;;;;;6.18;4.10;;;16.30;75.20;;;;;;5073131;28;20024;-13
2022/06/11 01:01:28;;;;;;;9.15;5.32;;;16.30;75.20;;;;;;5072918;28;20025;-13
2022/06/11 01:04:01;;;;;;;7.60;5.55;;;16.30;75.50;;;;;;5073098;28;20392;-12
2022/06/11 01:06:42;;;;;;;7.68;5.70;;;16.30;75.50;;;;;;5073041;28;20025;-13
2022/06/11 01:09:11;;;;;;;7.30;4.60;;;16.20;75.60;;;;;;5073333;28;20488;-13
2022/06/11 01:11:52;;;;;;;5.88;4.07;;;16.20;76.00;;;;;;5073156;28;20060;-13
2022/06/11 01:14:37;;;;;;;6.13;3.70;;;16.20;76.00;;;;;;5073022;28;20074;-12
2022/06/11 01:17:10;;;;;;;7.80;4.18;;;16.20;75.80;;;;;;5073046;28;20032;-13
2022/06/11 01:19:42;;;;;;;7.20;4.43;;;16.20;75.70;;;;;;5073206;28;20028;-12
2022/06/11 01:22:15;;;;;;;6.72;4.40;;;16.10;75.90;;;;;;5073002;28;20020;-13
2022/06/11 01:24:55;;;;;;;9.00;4.32;;;16.10;75.80;;;;;;5073892;28;20033;-13
2022/06/11 01:27:46;;;;;;;7.43;4.22;;;16.10;75.80;;;;;;5073239;28;20107;-12
2022/06/11 01:30:24;;;;;;;10.23;6.05;;;16.10;76.00;;;;;;5072672;28;20025;-12
2022/06/11 01:33:21;;;;;;;9.23;5.22;;;16.00;76.40;;;;;;5072705;28;20025;-13
2022/06/11 01:36:19;;;;;;;8.50;5.88;;;16.00;76.80;;;;;;5072815;28;20017;-12
2022/06/11 01:39:04;;;;;;;8.65;4.90;;;15.90;76.50;;;;;;5073341;28;20020;-13
2022/06/11 01:41:44;;;;;;;5.45;3.75;;;15.90;76.60;;;;;;5073504;28;20103;-13
2022/06/11 01:44:28;;;;;;;6.28;4.25;;;15.90;76.60;;;;;;5072663;28;20020;-14
2022/06/11 01:46:56;;;;;;;6.53;4.45;;;15.90;76.60;;;;;;5072581;28;20017;-12
2022/06/11 01:49:22;;;;;;;6.80;4.60;;;15.90;76.90;;;;;;5072346;28;20056;-12
2022/06/11 01:52:18;;;;;;;6.70;4.80;;;15.80;77.00;;;;;;5076234;28;20123;-14
2022/06/11 01:55:25;;;;;;;9.18;5.38;;;15.80;77.00;;;;;;5076921;28;20100;-12
2022/06/11 01:58:22;;;;;;;7.45;5.00;;;15.80;77.50;;;;;;5076300;28;20526;-13
2022/06/11 02:01:09;;;;;;;5.80;4.35;;;15.80;77.40;;;;;;5076063;28;20029;-12
2022/06/11 02:03:51;;;;;;;8.95;4.93;;;15.70;77.30;;;;;;5076095;28;20031;-13
2022/06/11 02:06:26;;;;;;;7.40;4.70;;;15.70;77.30;;;;;;5076090;28;20025;-12
2022/06/11 02:09:36;;;;;;;7.15;5.38;;;15.70;77.20;;;;;;5076009;28;20024;-12
2022/06/11 02:12:28;;;;;;;7.95;5.00;;;15.60;77.80;;;;;;5075920;28;20037;-12
2022/06/11 02:15:02;;;;;;;9.70;6.00;;;15.60;77.40;;;;;;5075959;28;20025;-13
2022/06/11 02:17:34;;;;;;;8.43;5.68;;;15.60;77.40;;;;;;5076378;28;20024;-13
2022/06/11 02:20:29;;;;;;;11.07;6.07;;;15.50;77.50;;;;;;5075931;28;20051;-12
2022/06/11 02:23:04;;;;;;;8.63;5.72;;;15.50;77.60;;;;;;5075332;28;20048;-14
2022/06/11 02:25:41;;;;;;;6.65;4.22;;;15.40;77.70;;;;;;5076145;28;20024;-13
2022/06/11 02:28:13;;;;;;;7.63;4.50;;;15.40;77.90;;;;;;5075789;28;20071;-13
2022/06/11 02:30:42;;;;;;;7.15;4.70;;;15.40;77.80;;;;;;5075632;28;20036;-12
2022/06/11 02:33:11;;;;;;;7.30;5.32;;;15.40;78.10;;;;;;5075747;28;20395;-12
2022/06/11 02:35:44;;;;;;;7.88;5.47;;;15.40;78.20;;;;;;5075912;28;20115;-13
2022/06/11 02:38:15;;;;;;;7.18;5.25;;;15.40;78.10;;;;;;5075766;28;20095;-13
2022/06/11 02:40:50;;;;;;;10.88;7.22;;;15.40;78.20;;;;;;5075849;28;20017;-12
2022/06/11 02:43:18;;;;;;;9.20;5.97;;;15.30;78.20;;;;;;5075516;28;20067;-12
2022/06/11 02:45:44;;;;;;;7.68;5.40;;;15.30;78.50;;;;;;5075339;28;20037;-13
2022/06/11 02:48:12;;;;;;;9.65;4.72;;;15.30;78.50;;;;;;5075404;28;20028;-13
2022/06/11 02:50:39;;;;;;;8.70;5.57;;;15.30;78.40;;;;;;5074818;28;20084;-12
2022/06/11 02:53:07;;;;;;;10.15;6.47;;;15.30;78.40;;;;;;5075269;28;20078;-12
2022/06/11 02:55:35;;;;;;;8.07;6.10;;;15.30;78.50;;;;;;5075534;28;20035;-12
2022/06/11 02:58:02;;;;;;;9.88;5.35;;;15.30;78.60;;;;;;5075142;28;20116;-12
2022/06/11 03:00:33;;;;;;;8.88;5.88;;;15.30;78.70;;;;;;5074461;28;20039;-12
2022/06/11 03:03:01;;;;;;;7.38;5.53;;;15.30;78.70;;;;;;5075306;28;20021;-12
2022/06/11 03:05:29;;;;;;;12.43;5.85;;;15.20;78.60;;;;;;5073843;28;20035;-12
2022/06/11 03:07:58;;;;;;;7.53;5.13;;;15.30;78.90;;;;;;5075506;28;20017;-12
2022/06/11 03:10:25;;;;;;;5.95;4.40;;;15.20;78.80;;;;;;5074556;28;20028;-13
2022/06/11 03:12:53;;;;;;;9.45;5.28;;;15.20;78.90;;;;;;5075501;28;20075;-13
2022/06/11 03:15:21;;;;;;;8.20;6.70;;;15.20;78.80;;;;;;5075137;28;20082;-13
2022/06/11 03:17:49;;;;;;;11.10;6.90;;;15.20;79.00;;;;;;5074576;28;20060;-13
2022/06/11 03:20:17;;;;;;;7.53;5.13;;;15.20;79.00;;;;;;5074561;28;20039;-14
2022/06/11 03:22:43;;;;;;;7.07;5.07;;;15.20;79.00;;;;;;5074614;28;20024;-12
2022/06/11 03:25:10;;;;;;;10.40;6.35;;;15.20;79.00;;;;;;5074612;28;20535;-14
2022/06/11 03:27:38;;;;;;;12.38;4.93;;;15.10;79.10;;;;;;5074595;28;20380;-12
2022/06/11 03:30:08;;;;;;;6.75;4.75;;;15.10;79.40;;;;;;5074516;28;20021;-13
2022/06/11 03:32:34;;;;;;;11.15;7.18;;;15.10;79.20;;;;;;5074207;28;20506;-13
2022/06/11 03:35:05;;;;;;;9.60;6.20;;;15.20;79.50;;;;;;5074656;28;20052;-13
2022/06/11 03:37:32;;;;;;;9.25;5.40;;;15.10;79.50;;;;;;5074316;28;20384;-12
2022/06/11 03:39:59;;;;;;;8.88;5.15;;;15.10;79.50;;;;;;5074299;28;20029;-13
2022/06/11 03:42:25;;;;;;;8.13;5.47;;;15.10;79.40;;;;;;5074100;28;20098;-12
2022/06/11 03:44:51;;;;;;;10.23;5.75;;;15.10;79.40;;;;;;5074229;28;20032;-12
2022/06/11 03:47:17;;;;;;;8.00;5.80;;;15.10;79.50;;;;;;5074001;28;20021;-13
2022/06/11 03:49:44;;;;;;;10.20;5.82;;;15.20;79.90;;;;;;5074057;28;20055;-13
2022/06/11 03:52:10;;;;;;;9.90;5.82;;;15.20;79.90;;;;;;5074558;28;20522;-12
2022/06/11 03:54:37;;;;;;;6.68;5.05;;;15.20;79.60;;;;;;5072593;28;20070;-13
2022/06/11 03:57:04;;;;;;;8.02;6.40;;;15.20;79.40;;;;;;5074189;28;20041;-12
2022/06/11 03:59:31;;;;;;;10.68;6.45;;;15.20;79.50;;;;;;5072691;28;20028;-16
2022/06/11 04:01:57;;;;;;;7.82;4.88;;;15.20;79.50;;;;;;5074004;28;20571;-13
2022/06/11 04:04:24;;;;;;;7.45;5.28;;;15.30;79.40;;;;;;5073739;28;20107;-13
2022/06/11 04:06:58;;;;;;;8.88;6.20;;;15.30;79.50;;;;;;5073758;28;20032;-13
2022/06/11 04:09:37;;;;;;;6.05;4.60;;;15.40;79.80;;;;;;5074342;28;20027;-12
2022/06/11 04:12:09;;;;;;;10.23;6.75;;;15.40;79.70;;;;;;5073442;28;20476;-12
2022/06/11 04:14:36;;;;;;;9.80;6.78;;;15.50;79.20;;;;;;5073646;28;20024;-13
2022/06/11 04:17:06;;;;;;;10.98;6.72;;;15.50;79.10;;;;;;5073584;28;20032;-11
2022/06/11 04:19:38;;;;;;;9.65;5.65;;;15.70;79.00;;;;;;5073591;28;20067;-13
2022/06/11 04:22:04;;;;;;;8.68;6.30;;;15.80;78.90;;;;;;5073697;28;20465;-12
2022/06/11 04:24:31;;;;;;;9.25;5.63;;;15.90;78.70;;;;;;5073371;28;20066;-13
2022/06/11 04:27:00;;;;;;;9.95;6.38;;;16.00;78.50;;;;;;5073476;28;20032;-12
2022/06/11 04:29:29;;;;;;;8.75;6.10;;;16.10;78.20;;;;;;5074047;28;20487;-13
2022/06/11 04:31:58;;;;;;;13.02;6.15;;;16.20;78.10;;;;;;5073172;28;20029;-12
2022/06/11 04:34:25;;;;;;;9.63;5.82;;;16.40;77.90;;;;;;5073750;28;20051;-13
2022/06/11 04:36:52;;;;;;;9.75;5.07;;;16.50;77.60;;;;;;5072159;28;20116;-15
2022/06/11 04:39:21;;;;;;;9.65;4.95;;;16.60;77.50;;;;;;5073489;28;20017;-13
2022/06/11 04:41:47;;;;;;;11.38;5.25;;;16.70;77.10;;;;;;5073896;28;20025;-12
2022/06/11 04:44:13;;;;;;;7.55;5.30;;;16.90;76.80;;;;;;5073195;28;20493;-13
2022/06/11 04:46:39;;;;;;;8.95;5.18;;;17.00;76.50;;;;;;5071951;28;20060;-13
2022/06/11 04:49:06;;;;;;;5.95;4.10;;;17.10;76.20;;;;;;5073503;28;20028;-14
2022/06/11 04:51:32;;;;;;;8.73;4.38;;;17.30;75.80;;;;;;5073153;28;20032;-13
2022/06/11 04:53:58;;;;;;;4.90;3.83;;;17.40;75.50;;;;;;5073920;28;20028;-12
2022/06/11 04:56:28;;;;;;;6.03;3.58;;;17.50;75.10;;;;;;5072889;28;20423;-11
2022/06/11 04:58:55;;;;;;;8.35;3.92;;;17.60;74.90;;;;;;5073314;28;20083;-10
2022/06/11 05:01:22;;;;;;;6.10;3.70;;;17.80;75.60;;;;;;5072938;28;20467;-11
2022/06/11 05:03:49;;;;;;;7.90;3.95;;;17.90;74.90;;;;;;5073343;28;20169;-10
2022/06/11 05:06:17;;;;;;;6.05;4.30;;;17.90;75.20;;;;;;5072755;28;20586;-12
2022/06/11 05:08:44;;;;;;;6.18;4.00;;;18.00;75.40;;;;;;5072990;28;20075;-11
2022/06/11 05:11:10;;;;;;;5.60;4.07;;;18.10;75.20;;;;;;5073075;28;20029;-11
2022/06/11 05:13:36;;;;;;;4.40;3.53;;;18.30;74.80;;;;;;5072949;28;20036;-11
2022/06/11 05:16:03;;;;;;;4.30;3.63;;;18.40;74.40;;;;;;5073140;28;20024;-10
2022/06/11 05:18:31;;;;;;;5.72;3.63;;;18.40;74.20;;;;;;5073008;28;20033;-10
2022/06/11 05:20:57;;;;;;;4.80;3.08;;;18.60;74.30;;;;;;5073343;28;20024;-10
2022/06/11 05:23:23;;;;;;;4.53;3.70;;;18.70;74.00;;;;;;5074399;28;20020;-11
2022/06/11 05:25:49;;;;;;;6.68;3.63;;;18.80;73.50;;;;;;5075772;28;20032;-10
2022/06/11 05:28:22;;;;;;;6.82;3.85;;;18.90;73.20;;;;;;5076645;28;20392;-10
2022/06/11 05:30:49;;;;;;;4.97;3.75;;;19.00;72.80;;;;;;5077096;28;20415;-10
2022/06/11 05:33:16;;;;;;;7.13;3.90;;;19.10;72.50;;;;;;5076957;28;20042;-11
2022/06/11 05:35:42;;;;;;;8.70;5.13;;;19.20;72.10;;;;;;5076860;28;20028;-10
2022/06/11 05:38:14;;;;;;;7.93;4.75;;;19.40;71.80;;;;;;5076613;28;20029;-12
2022/06/11 05:40:42;;;;;;;9.15;5.50;;;19.40;71.60;;;;;;5076999;28;20032;-13
2022/06/11 05:43:09;;;;;;;8.30;5.40;;;19.60;71.30;;;;;;5076935;28;20112;-13
2022/06/11 05:45:42;;;;;;;7.32;5.20;;;19.70;71.10;;;;;;5076522;28;20099;-14
2022/06/11 05:48:10;;;;;;;8.52;5.13;;;19.80;70.90;;;;;;5076415;28;20028;-10
2022/06/11 05:50:40;;;;;;;8.20;5.45;;;19.90;70.60;;;;;;5075912;28;20139;-11
2022/06/11 05:53:07;;;;;;;8.70;5.85;;;20.00;70.30;;;;;;5076350;28;20104;-9
2022/06/11 05:55:38;;;;;;;9.30;5.40;;;20.20;70.20;;;;;;5076282;28;20038;-11
2022/06/11 05:58:07;;;;;;;9.27;5.60;;;20.20;69.90;;;;;;5076588;28;20104;-10
2022/06/11 06:00:35;;;;;;;7.97;4.30;;;20.40;69.70;;;;;;5076058;28;20729;-10
2022/06/11 06:03:02;;;;;;;8.18;4.50;;;20.50;69.50;;;;;;5076320;28;20443;-11
2022/06/11 06:05:30;;;;;;;7.82;4.82;;;20.60;69.10;;;;;;5076110;28;20492;-11
2022/06/11 06:07:57;;;;;;;7.28;4.50;;;20.80;68.80;;;;;;5076585;28;20039;-11
2022/06/11 06:10:24;;;;;;;7.90;5.40;;;20.90;68.50;;;;;;5076117;28;20060;-11
2022/06/11 06:12:50;;;;;;;7.72;4.97;;;21.00;68.10;;;;;;5076306;28;20047;-10
2022/06/11 06:15:22;;;;;;;8.07;4.70;;;21.10;67.80;;;;;;5075961;28;20078;-10
2022/06/11 06:17:50;;;;;;;6.18;4.63;;;21.30;67.60;;;;;;5076121;28;20419;-11
2022/06/11 06:20:19;;;;;;;14.60;5.93;;;21.40;67.00;;;;;;5076253;28;20017;-10
2022/06/11 06:22:45;;;;;;;6.78;4.43;;;21.50;66.50;;;;;;5075797;28;20388;-10
2022/06/11 06:25:17;;;;;;;6.82;4.47;;;21.70;66.20;;;;;;5076383;28;20024;-11
2022/06/11 06:27:43;;;;;;;10.38;4.55;;;21.80;65.70;;;;;;5075792;28;20029;-10
2022/06/11 06:30:10;;;;;;;7.53;3.85;;;22.00;65.50;;;;;;5075882;28;20031;-10
2022/06/11 06:32:37;;;;;;;4.90;3.70;;;22.20;65.20;;;;;;5075266;28;20025;-11
2022/06/11 06:35:04;;;;;;;6.43;4.30;;;22.40;64.80;;;;;;5075054;28;20036;-10
2022/06/11 06:37:31;;;;;;;6.40;3.95;;;22.50;64.30;;;;;;5074252;28;20408;-11
2022/06/11 06:39:57;;;;;;;7.95;4.72;;;22.70;63.70;;;;;;5075523;28;20037;-11
2022/06/11 06:42:23;;;;;;;10.32;5.38;;;22.90;62.80;;;;;;5075583;28;20032;-11
2022/06/11 06:44:49;;;;;;;7.00;4.70;;;23.00;62.20;;;;;;5075716;28;20388;-10
2022/06/11 06:47:15;;;;;;;8.07;4.60;;;23.20;61.80;;;;;;5075247;28;20392;-11
2022/06/11 06:49:41;;;;;;;10.77;4.50;;;23.30;61.10;;;;;;5075333;28;20048;-10
2022/06/11 06:52:07;;;;;;;8.30;5.03;;;23.40;60.20;;;;;;5075375;28;20037;-12
2022/06/11 06:54:33;;;;;;;9.27;5.10;;;23.60;59.00;;;;;;5075073;28;20028;-10
2022/06/11 06:56:59;;;;;;;6.97;4.30;;;23.70;58.40;;;;;;5075252;28;20035;-10
2022/06/11 06:59:26;;;;;;;7.65;5.05;;;23.90;57.20;;;;;;5075231;28;20028;-10
2022/06/11 07:01:52;;;;;;;7.93;4.60;;;23.90;56.60;;;;;;5074998;28;20027;-11
2022/06/11 07:04:18;;;;;;;5.22;3.60;;;24.00;56.80;;;;;;5074860;28;20028;-10
2022/06/11 07:06:44;;;;;;;5.20;3.60;;;24.20;57.00;;;;;;5075612;28;20036;-10
2022/06/11 07:09:09;;;;;;;6.25;4.07;;;24.40;56.30;;;;;;5075759;28;20025;-11
2022/06/11 07:11:35;;;;;;;6.45;3.72;;;24.50;55.10;;;;;;5074767;28;20388;-10
2022/06/11 07:14:01;;;;;;;5.35;3.83;;;24.70;54.70;;;;;;5073665;28;20032;-10
2022/06/11 07:16:37;;;;;;;8.80;3.80;;;24.90;54.10;;;;;;5074829;28;20028;-10
2022/06/11 07:19:10;;;;;;;8.60;4.57;;;25.00;53.70;;;;;;5074753;28;20053;-10
2022/06/11 07:21:43;;;;;;;6.40;2.97;;;25.20;53.50;;;;;;5075064;28;20433;-11
2022/06/11 07:24:16;;;;;;;2.92;2.47;;;25.40;52.90;;;;;;5075092;28;20454;-9
2022/06/11 07:26:46;;;;;;;4.72;2.90;;;25.60;50.90;;;;;;5075030;28;20025;-10
2022/06/11 07:29:38;;;;;;;5.25;3.30;;;25.90;50.70;;;;;;5075202;28;20027;-10
2022/06/11 07:32:13;;;;;;;5.60;2.42;;;26.00;49.40;;;;;;5074795;28;20029;-11
2022/06/11 07:34:41;;;;;;;3.30;2.60;;;26.30;49.20;;;;;;5074402;28;20056;-11
2022/06/11 07:37:07;;;;;;;3.78;2.70;;;26.30;48.60;;;;;;5075010;28;20376;-10
2022/06/11 07:39:34;;;;;;;5.25;2.95;;;26.40;47.90;;;;;;5074343;28;20035;-10
2022/06/11 07:42:00;;;;;;;4.75;3.15;;;26.40;48.00;;;;;;5074919;28;20503;-10
2022/06/11 07:44:26;;;;;;;5.85;3.50;;;26.60;48.00;;;;;;5074038;28;20028;-11
2022/06/11 07:46:52;;;;;;;6.18;3.70;;;26.70;47.60;;;;;;5074733;28;20025;-10
2022/06/11 07:49:18;;;;;;;2.63;2.42;;;26.80;48.00;;;;;;5073964;28;20131;-10
2022/06/11 07:51:44;;;;;;;5.28;2.60;;;26.80;46.70;;;;;;5074334;28;20039;-10
2022/06/11 07:54:10;;;;;;;2.63;2.42;;;26.80;45.90;;;;;;5074039;28;20025;-10
2022/06/11 07:56:38;;;;;;;3.47;2.30;;;26.90;46.00;;;;;;5074305;28;20028;-10
2022/06/11 07:59:07;;;;;;;4.47;2.15;;;26.90;46.10;;;;;;5073958;28;20116;-10
2022/06/11 08:01:33;;;;;;;5.07;2.70;;;27.10;46.00;;;;;;5074069;28;20020;-9
2022/06/11 08:03:59;;;;;;;3.03;2.40;;;27.40;45.70;;;;;;5073921;28;20055;-9
2022/06/11 08:06:25;;;;;;;3.63;2.25;;;27.60;44.90;;;;;;5073926;28;20033;-11
2022/06/11 08:08:52;;;;;;;4.22;2.80;;;27.70;45.20;;;;;;5073754;28;20024;-10
2022/06/11 08:11:18;;;;;;;3.38;2.45;;;27.90;45.20;;;;;;5073671;28;20035;-11
2022/06/11 08:13:46;;;;;;;6.35;2.63;;;28.10;44.60;;;;;;5073659;28;20419;-9
2022/06/11 08:16:13;;;;;;;3.13;2.30;;;28.20;44.20;;;;;;5073542;28;20020;-9
2022/06/11 08:18:39;;;;;;;2.83;1.98;;;28.30;43.70;;;;;;5073632;28;20039;-10
2022/06/11 08:21:05;;;;;;;2.38;2.17;;;28.30;43.70;;;;;;5073893;28;20071;-10
2022/06/11 08:23:31;;;;;;;4.45;2.40;;;28.40;44.00;;;;;;5073550;28;20583;-10
2022/06/11 08:25:57;;;;;;;2.45;2.17;;;28.60;43.70;;;;;;5074293;28;20029;-9
2022/06/11 08:28:24;;;;;;;3.90;2.17;;;28.90;42.30;;;;;;5073207;28;20404;-9
2022/06/11 08:30:51;;;;;;;2.40;2.15;;;29.00;42.00;;;;;;5073405;28;20536;-10
2022/06/11 08:33:18;;;;;;;3.88;2.17;;;29.20;41.80;;;;;;5073273;28;20411;-10
2022/06/11 08:35:44;;;;;;;2.38;2.17;;;29.40;42.00;;;;;;5072138;28;20039;-10
2022/06/11 08:38:11;;;;;;;2.35;2.00;;;29.60;41.70;;;;;;5073460;28;20020;-11
2022/06/11 08:40:56;;;;;;;3.17;2.10;;;29.70;41.50;;;;;;5073719;28;20032;-10
2022/06/11 08:43:28;;;;;;;2.00;1.80;;;29.90;40.70;;;;;;5073333;28;20021;-10
2022/06/11 08:46:09;;;;;;;3.58;2.30;;;30.00;40.30;;;;;;5073573;28;20036;-10
2022/06/11 08:48:54;;;;;;;4.40;2.20;;;30.30;38.70;;;;;;5072945;28;20051;-11
2022/06/11 08:51:27;;;;;;;2.30;2.10;;;30.50;38.90;;;;;;5073193;28;20048;-10
2022/06/11 08:53:57;;;;;;;4.25;2.30;;;30.50;38.60;;;;;;5073160;28;20044;-10
2022/06/11 08:56:35;;;;;;;3.00;2.05;;;30.40;38.40;;;;;;5072954;28;20380;-10
2022/06/11 09:00:00;;;;;;;4.07;2.17;;;30.40;38.60;;;;;;5073097;28;20024;-11
2022/06/11 09:02:56;;;;;;;2.20;2.05;;;30.40;39.30;;;;;;5026761;28;20029;-10
2022/06/11 09:05:37;;;;;;;2.67;1.98;;;30.40;39.10;;;;;;5051617;28;20078;-10
2022/06/11 09:08:18;;;;;;;4.00;2.40;;;30.60;38.20;;;;;;5051216;28;20033;-10
2022/06/11 09:11:10;;;;;;;1.85;1.75;;;30.90;37.80;;;;;;5050755;28;20037;-10
2022/06/11 09:14:13;;;;;;;3.80;2.00;;;31.40;36.60;;;;;;5051036;28;20041;-11
2022/06/11 09:17:15;;;;;;;2.53;2.30;;;31.70;35.70;;;;;;5050808;28;20064;-10
2022/06/11 09:20:04;;;;;;;5.13;2.27;;;31.90;35.70;;;;;;5051262;28;20041;-10
2022/06/11 09:22:50;;;;;;;2.38;2.10;;;31.80;35.80;;;;;;5050661;28;20082;-11
2022/06/11 09:25:35;;;;;;;3.65;2.50;;;31.80;36.30;;;;;;5050688;28;20036;-10
2022/06/11 09:28:22;;;;;;;2.40;2.15;;;31.90;36.10;;;;;;5050990;28;20036;-11
2022/06/11 09:31:02;;;;;;;2.13;1.83;;;31.90;35.40;;;;;;5050637;28;20551;-11
2022/06/11 09:33:58;;;;;;;3.03;2.00;;;31.90;36.10;;;;;;5067422;28;20029;-11
2022/06/11 09:36:33;;;;;;;2.10;1.90;;;32.40;34.00;;;;;;5072544;28;20044;-10
2022/06/11 09:39:22;;;;;;;2.00;1.80;;;32.90;34.60;;;;;;5072768;28;20029;-11
2022/06/11 09:42:07;;;;;;;2.60;2.13;;;33.40;34.60;;;;;;5072647;28;20485;-11
2022/06/11 09:44:59;;;;;;;4.88;2.22;;;33.80;33.70;;;;;;5072524;28;20513;-10
2022/06/11 09:47:43;;;;;;;2.67;2.00;;;34.20;33.70;;;;;;5072514;28;20029;-10
2022/06/11 09:50:28;;;;;;;2.22;2.03;;;34.40;32.90;;;;;;5072424;28;20048;-11
2022/06/11 09:53:12;;;;;;;3.33;2.60;;;34.60;32.70;;;;;;5072669;28;20040;-10
2022/06/11 09:56:07;;;;;;;3.08;2.35;;;34.40;32.70;;;;;;5072607;28;20024;-10
2022/06/11 09:58:52;;;;;;;2.40;2.20;;;34.10;32.80;;;;;;5072370;28;20020;-11
2022/06/11 10:01:31;;;;;;;4.70;2.35;;;33.90;33.80;;;;;;5072516;28;20107;-11
2022/06/11 10:04:11;;;;;;;3.30;2.10;;;33.90;33.30;;;;;;5072815;28;20472;-10
2022/06/11 10:06:53;;;;;;;3.03;2.00;;;34.00;32.90;;;;;;5072608;28;20435;-11
2022/06/11 10:09:47;;;;;;;3.45;2.10;;;34.30;32.90;;;;;;5072710;28;20025;-10
2022/06/11 10:12:24;;;;;;;3.78;2.03;;;34.70;32.70;;;;;;5076018;28;20161;-10
2022/06/11 10:15:00;;;;;;;3.90;2.40;;;35.10;32.10;;;;;;5076003;28;20548;-9
2022/06/11 10:17:38;;;;;;;3.53;2.45;;;35.30;30.70;;;;;;5076330;28;20056;-11
2022/06/11 10:20:20;;;;;;;3.10;2.30;;;34.90;32.10;;;;;;5076280;28;20032;-11
2022/06/11 10:23:16;;;;;;;3.42;2.47;;;34.70;33.10;;;;;;5075873;28;20104;-12
2022/06/11 10:25:54;;;;;;;5.07;2.10;;;34.90;32.50;;;;;;5076134;28;20033;-11
2022/06/11 10:28:41;;;;;;;3.72;2.10;;;35.30;32.30;;;;;;5075533;28;20077;-10
2022/06/11 10:31:17;;;;;;;2.80;2.47;;;35.60;31.20;;;;;;5075676;28;20039;-11
2022/06/11 10:34:05;;;;;;;6.45;2.78;;;35.90;31.90;;;;;;5075639;28;20024;-11
2022/06/11 10:36:54;;;;;;;7.97;2.90;;;35.90;31.20;;;;;;5075680;28;20032;-11
2022/06/11 10:39:42;;;;;;;3.30;2.60;;;35.60;31.10;;;;;;5068206;28;20032;-10
2022/06/11 10:42:24;;;;;;;7.13;2.70;;;35.30;31.20;;;;;;5075916;28;20037;-12
2022/06/11 10:44:52;;;;;;;2.55;2.35;;;34.80;31.80;;;;;;5075520;28;20423;-10
2022/06/11 10:47:44;;;;;;;2.55;2.15;;;34.40;32.50;;;;;;5075565;28;20090;-11
2022/06/11 10:50:11;;;;;;;2.30;1.77;;;34.30;33.20;;;;;;5074839;28;20110;-10
2022/06/11 10:52:46;;;;;;;5.47;2.60;;;34.50;33.40;;;;;;5075325;28;20132;-11
2022/06/11 10:55:27;;;;;;;3.92;2.03;;;34.90;32.20;;;;;;5075225;28;20037;-10
2022/06/11 10:57:54;;;;;;;3.40;2.40;;;35.10;31.30;;;;;;5075613;28;20129;-10
2022/06/11 11:00:35;;;;;;;3.15;2.28;;;35.30;32.00;;;;;;5075443;28;20024;-10
2022/06/11 11:03:12;;;;;;;3.05;2.20;;;35.30;32.00;;;;;;5075087;28;20024;-10
2022/06/11 11:05:59;;;;;;;2.28;1.80;;;35.40;31.30;;;;;;5075421;28;20487;-10
2022/06/11 11:08:25;;;;;;;2.88;2.13;;;35.60;31.20;;;;;;5074915;28;20021;-11
2022/06/11 11:10:54;;;;;;;2.72;2.38;;;36.10;30.40;;;;;;5075309;28;20016;-10
2022/06/11 11:13:40;;;;;;;4.32;2.35;;;36.60;29.50;;;;;;5074922;28;20090;-11
2022/06/11 11:16:22;;;;;;;3.50;2.17;;;36.70;30.00;;;;;;5074909;28;20025;-10
2022/06/11 11:18:56;;;;;;;4.22;2.55;;;36.70;29.10;;;;;;5075004;28;20048;-10
2022/06/11 11:21:33;;;;;;;3.47;2.10;;;36.50;29.20;;;;;;5074379;28;20028;-10
2022/06/11 11:24:22;;;;;;;2.00;1.80;;;36.30;30.20;;;;;;5075088;28;20113;-11
2022/06/11 11:27:23;;;;;;;1.85;1.75;;;36.20;29.90;;;;;;5074666;28;20024;-12
2022/06/11 11:30:00;;;;;;;4.07;1.90;;;36.20;28.80;;;;;;5074650;28;20137;-10
2022/06/11 11:32:35;;;;;;;3.05;1.88;;;36.40;28.50;;;;;;5074189;28;20025;-10
2022/06/11 11:35:22;;;;;;;1.70;1.50;;;36.90;27.70;;;;;;5074437;28;20032;-10
2022/06/11 11:38:10;;;;;;;1.48;1.30;;;37.70;26.90;;;;;;5074759;28;20089;-10
2022/06/11 11:40:59;;;;;;;4.47;1.75;;;38.50;27.10;;;;;;5070591;28;20473;-11
2022/06/11 11:43:37;;;;;;;2.20;1.60;;;39.10;25.20;;;;;;5074682;28;20029;-11
2022/06/11 11:46:10;;;;;;;4.15;2.10;;;39.30;27.00;;;;;;5074327;28;20037;-10
2022/06/11 11:48:43;;;;;;;2.13;1.73;;;39.30;26.90;;;;;;5073937;28;20029;-11
2022/06/11 11:51:41;;;;;;;2.97;1.70;;;39.00;27.10;;;;;;5073977;28;20044;-10
2022/06/11 11:54:18;;;;;;;3.40;1.98;;;38.90;27.50;;;;;;5071255;28;20583;-11
2022/06/11 11:56:48;;;;;;;1.77;1.42;;;38.90;27.40;;;;;;5074736;28;20024;-11
2022/06/11 11:59:16;;;;;;;2.33;1.80;;;38.90;28.00;;;;;;5074728;28;20021;-10
2022/06/11 12:01:45;;;;;;;2.03;1.73;;;39.30;27.00;;;;;;5073846;28;20023;-11
2022/06/11 12:04:48;;;;;;;2.33;1.80;;;39.40;26.90;;;;;;5072724;28;20025;-11
2022/06/11 12:07:16;;;;;;;1.70;1.60;;;39.30;27.10;;;;;;5073893;28;20033;-11
2022/06/11 12:09:55;;;;;;;2.63;1.70;;;39.50;26.60;;;;;;5074103;28;20034;-11
2022/06/11 12:12:30;;;;;;;1.58;1.48;;;39.70;26.20;;;;;;5073792;28;20032;-12
2022/06/11 12:15:00;;;;;;;3.20;2.05;;;39.80;26.50;;;;;;5074079;28;20059;-10
2022/06/11 12:17:52;;;;;;;2.80;1.67;;;39.70;26.50;;;;;;5073618;28;20051;-11
2022/06/11 12:20:46;;;;;;;3.25;1.92;;;39.70;26.10;;;;;;5073365;28;20036;-10
2022/06/11 12:23:33;;;;;;;1.90;1.80;;;39.80;25.90;;;;;;5073568;28;20056;-11
2022/06/11 12:26:06;;;;;;;3.42;1.60;;;39.80;26.20;;;;;;5073583;28;20036;-10
2022/06/11 12:28:38;;;;;;;2.67;1.50;;;39.60;26.20;;;;;;5073334;28;20381;-10
2022/06/11 12:31:05;;;;;;;;;;;39.40;26.80;;;;;;5074680;28;20075;-11
2022/06/11 12:33:31;;;;;;;1.90;1.75;;;39.70;25.70;;;;;;5072910;28;19915;-11
2022/06/11 12:36:28;;;;;;;2.45;1.50;;;40.10;25.80;;;;;;5073469;28;20044;-11
2022/06/11 12:39:17;;;;;;;2.60;1.50;;;40.40;26.20;;;;;;5073366;28;20032;-11
2022/06/11 12:42:06;;;;;;;1.60;1.50;;;40.40;26.00;;;;;;5073694;28;20028;-11
2022/06/11 12:44:50;;;;;;;1.23;1.10;;;40.80;25.70;;;;;;5073207;28;20024;-10
2022/06/11 12:47:41;;;;;;;1.80;1.50;;;41.10;25.20;;;;;;5073522;28;20054;-12
2022/06/11 12:50:10;;;;;;;2.53;1.90;;;41.30;25.20;;;;;;5073202;28;20055;-12
2022/06/11 12:53:03;;;;;;;2.88;1.70;;;41.00;25.40;;;;;;5073219;28;20040;-12
2022/06/11 12:55:55;;;;;;;1.60;1.50;;;40.60;25.20;;;;;;5073464;28;20048;-12
2022/06/11 12:58:53;;;;;;;2.10;1.75;;;40.20;24.80;;;;;;5073285;28;20085;-12
2022/06/11 13:01:34;;;;;;;2.05;1.60;;;40.10;24.70;;;;;;5073395;28;20012;-13
2022/06/11 13:04:18;;;;;;;3.53;1.70;;;40.00;25.10;;;;;;5073161;28;20481;-12
2022/06/11 13:07:09;;;;;;;2.85;1.70;;;40.30;25.10;;;;;;5073231;28;20036;-12
2022/06/11 13:09:58;;;;;;;2.78;1.27;;;40.30;25.10;;;;;;5073032;28;20050;-13
2022/06/11 13:12:49;;;;;;;2.92;1.40;;;40.00;25.30;;;;;;5061816;28;20040;-12
2022/06/11 13:15:29;;;;;;;1.95;1.38;;;39.90;25.20;;;;;;5073616;28;20024;-12
2022/06/11 13:18:18;;;;;;;2.05;1.20;;;40.00;25.00;;;;;;5073182;28;20056;-12
2022/06/11 13:21:03;;;;;;;2.70;1.63;;;40.20;24.80;;;;;;5073552;28;20055;-13
2022/06/11 13:23:52;;;;;;;1.63;1.52;;;40.10;24.40;;;;;;5072905;28;20039;-12
2022/06/11 13:26:38;;;;;;;1.52;1.42;;;39.60;25.40;;;;;;5072788;28;20107;-12